VPBBZ LYBE-LYTV
Flight info
| Callsign | VPBBZ |
|---|---|
| Flight time | 0h 40m |
| Altitude | 34000 |
| Route | VAL DCT MOJ/N0380F190 N732 POD |
| Aircraft | B738/M-SDE2E3FGHIRWXY/LB1 |
Departure
| Time | 2026-05-07 09:19 |
|---|---|
| Airport | Belgrade Nikola Tesla Airport (LYBE) |
Arrival
| Time | 2026-05-07 10:00 |
|---|---|
| Airport | Tivat Airport (LYTV) |
| Time | Latitude | Longitude | Altitude | Speed | Heading |
|---|---|---|---|---|---|
| 2026-05-07 08:43 | 44.81738 | 20.29430 | 306 ft | 0 kts | 122° |
| 2026-05-07 09:07 | 44.81745 | 20.29415 | 307 ft | 4 kts | 117° |
| 2026-05-07 09:07 | 44.81755 | 20.29380 | 305 ft | 4 kts | 99° |
| 2026-05-07 09:08 | 44.81754 | 20.29346 | 304 ft | 4 kts | 55° |
| 2026-05-07 09:08 | 44.81746 | 20.29334 | 304 ft | 0 kts | 31° |
| 2026-05-07 09:14 | 44.81747 | 20.29335 | 306 ft | 1 kts | 31° |
| 2026-05-07 09:14 | 44.81776 | 20.29359 | 306 ft | 7 kts | 31° |
| 2026-05-07 09:14 | 44.81843 | 20.29418 | 308 ft | 13 kts | 32° |
| 2026-05-07 09:15 | 44.81919 | 20.29485 | 308 ft | 13 kts | 32° |
| 2026-05-07 09:15 | 44.81993 | 20.29551 | 306 ft | 12 kts | 31° |
| 2026-05-07 09:15 | 44.82059 | 20.29608 | 307 ft | 11 kts | 32° |
| 2026-05-07 09:15 | 44.82109 | 20.29597 | 307 ft | 8 kts | 313° |
| 2026-05-07 09:16 | 44.82152 | 20.29505 | 307 ft | 17 kts | 302° |
| 2026-05-07 09:16 | 44.82221 | 20.29348 | 307 ft | 19 kts | 301° |
| 2026-05-07 09:16 | 44.82289 | 20.29189 | 309 ft | 19 kts | 301° |
| 2026-05-07 09:16 | 44.82355 | 20.29037 | 307 ft | 18 kts | 301° |
| 2026-05-07 09:17 | 44.82416 | 20.28912 | 306 ft | 10 kts | 307° |
| 2026-05-07 09:17 | 44.82474 | 20.28858 | 306 ft | 10 kts | 348° |
| 2026-05-07 09:17 | 44.82526 | 20.28900 | 307 ft | 10 kts | 86° |
| 2026-05-07 09:17 | 44.82514 | 20.28950 | 308 ft | 0 kts | 120° |
| 2026-05-07 09:18 | 44.82451 | 20.29093 | 306 ft | 54 kts | 122° |
| 2026-05-07 09:18 | 44.82109 | 20.29863 | 309 ft | 129 kts | 122° |
| 2026-05-07 09:19 | 44.81526 | 20.31087 | 677 ft | 156 kts | 127° |
| 2026-05-07 09:19 | 44.80962 | 20.32373 | 1593 ft | 151 kts | 122° |
| 2026-05-07 09:19 | 44.80434 | 20.33706 | 2359 ft | 161 kts | 123° |
| 2026-05-07 09:19 | 44.79540 | 20.34858 | 2681 ft | 194 kts | 160° |
| 2026-05-07 09:20 | 44.78162 | 20.34978 | 3153 ft | 207 kts | 193° |
| 2026-05-07 09:20 | 44.76857 | 20.34017 | 3651 ft | 221 kts | 214° |
| 2026-05-07 09:20 | 44.75397 | 20.33231 | 4153 ft | 234 kts | 178° |
| 2026-05-07 09:20 | 44.73831 | 20.33823 | 5047 ft | 235 kts | 161° |
| 2026-05-07 09:21 | 44.72259 | 20.34529 | 5658 ft | 240 kts | 165° |
| 2026-05-07 09:21 | 44.70630 | 20.35110 | 5983 ft | 244 kts | 168° |
| 2026-05-07 09:21 | 44.68937 | 20.35594 | 6509 ft | 253 kts | 171° |
| 2026-05-07 09:21 | 44.67192 | 20.36004 | 7370 ft | 256 kts | 172° |
| 2026-05-07 09:22 | 44.65408 | 20.36365 | 8237 ft | 261 kts | 173° |
| 2026-05-07 09:22 | 44.63596 | 20.36693 | 9193 ft | 265 kts | 174° |
| 2026-05-07 09:22 | 44.61751 | 20.37001 | 10118 ft | 269 kts | 175° |
| 2026-05-07 09:22 | 44.59875 | 20.37295 | 11021 ft | 272 kts | 175° |
| 2026-05-07 09:23 | 44.57983 | 20.37581 | 11954 ft | 276 kts | 176° |
| 2026-05-07 09:23 | 44.56064 | 20.37865 | 12907 ft | 279 kts | 176° |
| 2026-05-07 09:23 | 44.54117 | 20.38152 | 13863 ft | 283 kts | 176° |
| 2026-05-07 09:23 | 44.52145 | 20.38176 | 14732 ft | 285 kts | 194° |
| 2026-05-07 09:24 | 44.50362 | 20.37043 | 15705 ft | 284 kts | 217° |
| 2026-05-07 09:24 | 44.49005 | 20.35026 | 16608 ft | 289 kts | 237° |
| 2026-05-07 09:24 | 44.48042 | 20.32516 | 17491 ft | 296 kts | 242° |
| 2026-05-07 09:24 | 44.47145 | 20.29893 | 18358 ft | 301 kts | 243° |
| 2026-05-07 09:25 | 44.46252 | 20.27235 | 19247 ft | 302 kts | 243° |
| 2026-05-07 09:25 | 44.45352 | 20.24565 | 20146 ft | 305 kts | 243° |
| 2026-05-07 09:25 | 44.44424 | 20.21868 | 20995 ft | 311 kts | 242° |
| 2026-05-07 09:25 | 44.43460 | 20.19087 | 21623 ft | 323 kts | 242° |
| 2026-05-07 09:26 | 44.42470 | 20.16225 | 22332 ft | 329 kts | 242° |
| 2026-05-07 09:26 | 44.41464 | 20.13322 | 23139 ft | 332 kts | 242° |
| 2026-05-07 09:26 | 44.40449 | 20.10408 | 23889 ft | 335 kts | 242° |
| 2026-05-07 09:26 | 44.39424 | 20.07477 | 24578 ft | 336 kts | 242° |
| 2026-05-07 09:27 | 44.38394 | 20.04538 | 25291 ft | 337 kts | 242° |
| 2026-05-07 09:27 | 44.37360 | 20.01595 | 25985 ft | 338 kts | 242° |
| 2026-05-07 09:27 | 44.35275 | 19.95662 | 27312 ft | 342 kts | 242° |
| 2026-05-07 09:28 | 44.34221 | 19.92670 | 27955 ft | 344 kts | 242° |
| 2026-05-07 09:28 | 44.32886 | 19.89904 | 28532 ft | 346 kts | 225° |
| 2026-05-07 09:28 | 44.30933 | 19.87837 | 29065 ft | 353 kts | 211° |
| 2026-05-07 09:28 | 44.28581 | 19.86567 | 29133 ft | 374 kts | 196° |
| 2026-05-07 09:29 | 44.25975 | 19.85873 | 29242 ft | 389 kts | 193° |
| 2026-05-07 09:29 | 44.23255 | 19.85280 | 29345 ft | 402 kts | 192° |
| 2026-05-07 09:29 | 44.20454 | 19.84710 | 29462 ft | 413 kts | 191° |
| 2026-05-07 09:29 | 44.17576 | 19.84128 | 29638 ft | 421 kts | 191° |
| 2026-05-07 09:30 | 44.14657 | 19.83525 | 29927 ft | 427 kts | 192° |
| 2026-05-07 09:30 | 44.11711 | 19.82904 | 30306 ft | 429 kts | 192° |
| 2026-05-07 09:30 | 44.08762 | 19.82272 | 30812 ft | 427 kts | 192° |
| 2026-05-07 09:30 | 44.05847 | 19.81640 | 31484 ft | 421 kts | 192° |
| 2026-05-07 09:31 | 44.02971 | 19.81013 | 32087 ft | 417 kts | 192° |
| 2026-05-07 09:31 | 44.00102 | 19.80384 | 32541 ft | 417 kts | 192° |
| 2026-05-07 09:31 | 43.97239 | 19.79753 | 32989 ft | 416 kts | 192° |
| 2026-05-07 09:31 | 43.94350 | 19.79116 | 33505 ft | 414 kts | 192° |
| 2026-05-07 09:32 | 43.91513 | 19.78495 | 34024 ft | 412 kts | 192° |
| 2026-05-07 09:32 | 43.85787 | 19.77242 | 34077 ft | 418 kts | 192° |
| 2026-05-07 09:33 | 43.80111 | 19.76006 | 34075 ft | 409 kts | 192° |
| 2026-05-07 09:33 | 43.74486 | 19.74780 | 34091 ft | 410 kts | 192° |
| 2026-05-07 09:34 | 43.68834 | 19.73550 | 34060 ft | 412 kts | 192° |
| 2026-05-07 09:34 | 43.63206 | 19.72328 | 34079 ft | 413 kts | 192° |
| 2026-05-07 09:35 | 43.57473 | 19.71087 | 34095 ft | 415 kts | 192° |
| 2026-05-07 09:35 | 43.51745 | 19.69848 | 34096 ft | 417 kts | 192° |
| 2026-05-07 09:36 | 43.46005 | 19.68609 | 34081 ft | 418 kts | 192° |
| 2026-05-07 09:36 | 43.40274 | 19.67373 | 34013 ft | 417 kts | 192° |
| 2026-05-07 09:36 | 43.37383 | 19.66752 | 33285 ft | 421 kts | 192° |
| 2026-05-07 09:37 | 43.34496 | 19.66135 | 32552 ft | 419 kts | 192° |
| 2026-05-07 09:37 | 43.31616 | 19.65517 | 31734 ft | 420 kts | 192° |
| 2026-05-07 09:37 | 43.28729 | 19.64898 | 30886 ft | 421 kts | 192° |
| 2026-05-07 09:37 | 43.25830 | 19.64276 | 30027 ft | 422 kts | 192° |
| 2026-05-07 09:38 | 43.22952 | 19.63660 | 29335 ft | 416 kts | 192° |
| 2026-05-07 09:38 | 43.20111 | 19.63055 | 28690 ft | 409 kts | 192° |
| 2026-05-07 09:38 | 43.17317 | 19.62459 | 28028 ft | 405 kts | 192° |
| 2026-05-07 09:38 | 43.14553 | 19.61870 | 27403 ft | 400 kts | 192° |
| 2026-05-07 09:39 | 43.11819 | 19.61286 | 26775 ft | 395 kts | 192° |
| 2026-05-07 09:39 | 43.09123 | 19.60711 | 26172 ft | 390 kts | 192° |
| 2026-05-07 09:39 | 43.06446 | 19.60140 | 25577 ft | 387 kts | 192° |
| 2026-05-07 09:39 | 43.03794 | 19.59576 | 24959 ft | 385 kts | 192° |
| 2026-05-07 09:40 | 43.01156 | 19.59014 | 24363 ft | 383 kts | 192° |
| 2026-05-07 09:40 | 42.98531 | 19.58456 | 23758 ft | 381 kts | 192° |
| 2026-05-07 09:40 | 42.95915 | 19.57894 | 23079 ft | 379 kts | 193° |
| 2026-05-07 09:40 | 42.93374 | 19.57022 | 22297 ft | 375 kts | 202° |
| 2026-05-07 09:41 | 42.90959 | 19.55657 | 21545 ft | 375 kts | 206° |
| 2026-05-07 09:41 | 42.88576 | 19.54249 | 20921 ft | 372 kts | 206° |
| 2026-05-07 09:41 | 42.86209 | 19.52852 | 20322 ft | 369 kts | 206° |
| 2026-05-07 09:41 | 42.83861 | 19.51476 | 19760 ft | 366 kts | 205° |
| 2026-05-07 09:42 | 42.81499 | 19.50099 | 19182 ft | 363 kts | 205° |
| 2026-05-07 09:42 | 42.79183 | 19.48756 | 18615 ft | 360 kts | 205° |
| 2026-05-07 09:42 | 42.76883 | 19.47431 | 18020 ft | 358 kts | 205° |
| 2026-05-07 09:42 | 42.74597 | 19.46115 | 17400 ft | 356 kts | 205° |
| 2026-05-07 09:43 | 42.72332 | 19.44810 | 16844 ft | 352 kts | 205° |
| 2026-05-07 09:43 | 42.70087 | 19.43516 | 16283 ft | 348 kts | 205° |
| 2026-05-07 09:43 | 42.67869 | 19.42240 | 15735 ft | 345 kts | 205° |
| 2026-05-07 09:43 | 42.65664 | 19.40973 | 15191 ft | 343 kts | 205° |
| 2026-05-07 09:44 | 42.63472 | 19.39715 | 14634 ft | 341 kts | 205° |
| 2026-05-07 09:44 | 42.61289 | 19.38462 | 14113 ft | 339 kts | 205° |
| 2026-05-07 09:44 | 42.59121 | 19.37216 | 13498 ft | 338 kts | 205° |
| 2026-05-07 09:44 | 42.56960 | 19.35979 | 12938 ft | 335 kts | 205° |
| 2026-05-07 09:45 | 42.54817 | 19.34755 | 12372 ft | 333 kts | 205° |
| 2026-05-07 09:45 | 42.52692 | 19.33540 | 11832 ft | 330 kts | 205° |
| 2026-05-07 09:45 | 42.50587 | 19.32336 | 11304 ft | 327 kts | 205° |
| 2026-05-07 09:45 | 42.48498 | 19.31143 | 10865 ft | 323 kts | 205° |
| 2026-05-07 09:46 | 42.46469 | 19.29986 | 10704 ft | 311 kts | 205° |
| 2026-05-07 09:46 | 42.44510 | 19.28870 | 10521 ft | 301 kts | 205° |
| 2026-05-07 09:46 | 42.42613 | 19.27789 | 10375 ft | 291 kts | 206° |
| 2026-05-07 09:46 | 42.40780 | 19.26747 | 10248 ft | 280 kts | 206° |
| 2026-05-07 09:47 | 42.39021 | 19.25728 | 10134 ft | 270 kts | 209° |
| 2026-05-07 09:47 | 42.37556 | 19.24252 | 9929 ft | 260 kts | 226° |
| 2026-05-07 09:47 | 42.36261 | 19.22548 | 9606 ft | 259 kts | 226° |
| 2026-05-07 09:47 | 42.34978 | 19.20849 | 9301 ft | 257 kts | 226° |
| 2026-05-07 09:48 | 42.33702 | 19.19164 | 9008 ft | 255 kts | 225° |
| 2026-05-07 09:48 | 42.32432 | 19.17492 | 8708 ft | 255 kts | 225° |
| 2026-05-07 09:48 | 42.31161 | 19.15828 | 8407 ft | 253 kts | 225° |
| 2026-05-07 09:48 | 42.29905 | 19.14188 | 8111 ft | 249 kts | 224° |
| 2026-05-07 09:49 | 42.28669 | 19.12578 | 7820 ft | 245 kts | 224° |
| 2026-05-07 09:49 | 42.27448 | 19.10990 | 7556 ft | 241 kts | 224° |
| 2026-05-07 09:49 | 42.26250 | 19.09426 | 7278 ft | 239 kts | 223° |
| 2026-05-07 09:49 | 42.25057 | 19.07879 | 7002 ft | 237 kts | 223° |
| 2026-05-07 09:50 | 42.23874 | 19.06347 | 6678 ft | 235 kts | 223° |
| 2026-05-07 09:50 | 42.23081 | 19.05319 | 6497 ft | 232 kts | 223° |
| 2026-05-07 09:50 | 42.21933 | 19.03833 | 6169 ft | 231 kts | 223° |
| 2026-05-07 09:50 | 42.20763 | 19.02318 | 5880 ft | 229 kts | 223° |
| 2026-05-07 09:51 | 42.19621 | 19.00842 | 5655 ft | 222 kts | 223° |
| 2026-05-07 09:51 | 42.18543 | 18.99454 | 5540 ft | 208 kts | 222° |
| 2026-05-07 09:51 | 42.17534 | 18.98155 | 5416 ft | 193 kts | 223° |
| 2026-05-07 09:51 | 42.16605 | 18.96952 | 5350 ft | 177 kts | 222° |
| 2026-05-07 09:52 | 42.15753 | 18.95856 | 5262 ft | 161 kts | 222° |
| 2026-05-07 09:52 | 42.15104 | 18.94698 | 5132 ft | 158 kts | 251° |
| 2026-05-07 09:52 | 42.15078 | 18.93232 | 5045 ft | 161 kts | 272° |
| 2026-05-07 09:52 | 42.15284 | 18.91722 | 4879 ft | 166 kts | 275° |
| 2026-05-07 09:53 | 42.15513 | 18.90182 | 4690 ft | 169 kts | 276° |
| 2026-05-07 09:53 | 42.15747 | 18.88631 | 4555 ft | 168 kts | 276° |
| 2026-05-07 09:53 | 42.15990 | 18.87114 | 4454 ft | 165 kts | 282° |
| 2026-05-07 09:53 | 42.16725 | 18.85941 | 4322 ft | 175 kts | 334° |
| 2026-05-07 09:54 | 42.17888 | 18.85367 | 4198 ft | 183 kts | 336° |
| 2026-05-07 09:54 | 42.19077 | 18.84749 | 3992 ft | 183 kts | 337° |
| 2026-05-07 09:54 | 42.20257 | 18.84138 | 3812 ft | 181 kts | 338° |
| 2026-05-07 09:54 | 42.21422 | 18.83538 | 3599 ft | 177 kts | 338° |
| 2026-05-07 09:55 | 42.22550 | 18.82956 | 3455 ft | 172 kts | 338° |
| 2026-05-07 09:55 | 42.23667 | 18.82379 | 3311 ft | 172 kts | 338° |
| 2026-05-07 09:55 | 42.24775 | 18.81807 | 3150 ft | 167 kts | 339° |
| 2026-05-07 09:55 | 42.25829 | 18.81263 | 2998 ft | 159 kts | 339° |
| 2026-05-07 09:56 | 42.26846 | 18.80737 | 2856 ft | 151 kts | 340° |
| 2026-05-07 09:56 | 42.27811 | 18.80239 | 2681 ft | 147 kts | 343° |
| 2026-05-07 09:56 | 42.28784 | 18.79736 | 2531 ft | 153 kts | 342° |
| 2026-05-07 09:56 | 42.29776 | 18.79228 | 2291 ft | 150 kts | 341° |
| 2026-05-07 09:57 | 42.30714 | 18.78743 | 2072 ft | 140 kts | 342° |
| 2026-05-07 09:57 | 42.31609 | 18.78279 | 1869 ft | 138 kts | 340° |
| 2026-05-07 09:57 | 42.32499 | 18.77816 | 1711 ft | 136 kts | 340° |
| 2026-05-07 09:57 | 42.33439 | 18.77328 | 1540 ft | 153 kts | 345° |
| 2026-05-07 09:58 | 42.34469 | 18.76784 | 1336 ft | 157 kts | 339° |
| 2026-05-07 09:58 | 42.35444 | 18.76232 | 1097 ft | 147 kts | 338° |
| 2026-05-07 09:58 | 42.36359 | 18.75738 | 874 ft | 135 kts | 339° |
| 2026-05-07 09:58 | 42.37240 | 18.75271 | 688 ft | 136 kts | 339° |
| 2026-05-07 09:59 | 42.38137 | 18.74753 | 443 ft | 150 kts | 332° |
| 2026-05-07 09:59 | 42.39056 | 18.73940 | 216 ft | 158 kts | 323° |
| 2026-05-07 09:59 | 42.39883 | 18.73005 | 22 ft | 151 kts | 319° |
| 2026-05-07 09:59 | 42.40528 | 18.72254 | 19 ft | 91 kts | 319° |
| 2026-05-07 10:00 | 42.40838 | 18.71889 | 17 ft | 27 kts | 321° |
| 2026-05-07 10:00 | 42.40931 | 18.71794 | 19 ft | 14 kts | 352° |
| 2026-05-07 10:00 | 42.40967 | 18.71813 | 20 ft | 0 kts | 43° |
| 2026-05-07 10:00 | 42.40971 | 18.71818 | 19 ft | 1 kts | 43° |
| 2026-05-07 10:01 | 42.40979 | 18.71828 | 19 ft | 2 kts | 44° |
| 2026-05-07 10:01 | 42.40993 | 18.71847 | 18 ft | 3 kts | 43° |
| 2026-05-07 10:01 | 42.41017 | 18.71856 | 18 ft | 3 kts | 24° |
| 2026-05-07 10:01 | 42.41024 | 18.71859 | 18 ft | 2 kts | 21° |
| 2026-05-07 10:02 | 42.41034 | 18.71871 | 20 ft | 2 kts | 45° |
| 2026-05-07 10:02 | 42.41045 | 18.71888 | 18 ft | 1 kts | 48° |
| 2026-05-07 10:02 | 42.41046 | 18.71888 | 18 ft | 0 kts | 48° |